Time;durP1;ratioP1;P1;durP2;ratioP2;P2;SDS_P1;SDS_P2;PMS_P1;PMS_P2;Temp;Humidity;BMP_temperature;BMP_pressure;BME280_temperature;BME280_humidity;BME280_pressure;Samples;Min_cycle;Max_cycle;Signal;HPM_P1;HPM_P2
2022/10/21 00:01:23;;;;;;;23.05;11.10;;;11.80;99.90;;;;;;5018586;28;20034;-93
2022/10/21 00:03:48;;;;;;;25.60;11.93;;;11.80;99.90;;;;;;5018495;28;20080;-94
2022/10/21 00:06:14;;;;;;;27.73;11.55;;;11.80;99.90;;;;;;5017006;28;20014;-92
2022/10/21 00:08:39;;;;;;;24.88;10.40;;;11.80;99.90;;;;;;5012842;28;20057;-95
2022/10/21 00:11:07;;;;;;;27.30;12.48;;;11.80;99.90;;;;;;5003062;28;20030;-96
2022/10/21 00:13:34;;;;;;;26.33;10.60;;;11.80;99.90;;;;;;5007076;28;20033;-96
2022/10/21 00:16:12;;;;;;;26.30;11.27;;;11.90;99.90;;;;;;5031090;28;20069;-94
2022/10/21 00:18:40;;;;;;;24.63;10.68;;;11.90;99.90;;;;;;5016184;28;20040;-92
2022/10/21 00:21:08;;;;;;;23.58;11.48;;;11.90;99.90;;;;;;5013734;28;20036;-93
2022/10/21 00:23:34;;;;;;;25.10;9.43;;;12.00;99.90;;;;;;5014435;28;20026;-94
2022/10/21 00:26:02;;;;;;;27.70;11.40;;;12.00;99.90;;;;;;5013814;28;20025;-96
2022/10/21 00:28:29;;;;;;;26.85;9.95;;;12.00;99.90;;;;;;5017008;28;20022;-96
2022/10/21 00:30:55;;;;;;;23.15;10.20;;;12.00;99.90;;;;;;5020838;28;20110;-95
2022/10/21 00:33:26;;;;;;;22.50;8.63;;;12.00;99.90;;;;;;5019423;28;20064;-94
2022/10/21 00:35:54;;;;;;;11.57;6.40;;;12.00;99.90;;;;;;5034875;28;20038;-95
2022/10/21 00:38:20;;;;;;;21.50;9.73;;;12.00;99.90;;;;;;5016450;28;20038;-96
2022/10/21 00:40:45;;;;;;;23.52;9.68;;;12.00;99.90;;;;;;5020097;28;20082;-92
2022/10/21 00:43:12;;;;;;;17.08;8.20;;;12.10;99.90;;;;;;5020815;28;20038;-94
2022/10/21 00:45:38;;;;;;;20.45;10.30;;;12.00;99.90;;;;;;5011672;28;20022;-94
2022/10/21 00:48:25;;;;;;;22.90;9.52;;;12.00;99.90;;;;;;5010096;28;20030;-95
2022/10/21 00:50:56;;;;;;;13.48;6.70;;;12.00;99.90;;;;;;5005450;28;20022;-96
2022/10/21 00:53:23;;;;;;;16.40;7.78;;;12.00;99.90;;;;;;5007746;28;20038;-95
2022/10/21 00:55:55;;;;;;;24.27;9.55;;;12.00;99.90;;;;;;5010107;28;20026;-93
2022/10/21 00:58:25;;;;;;;19.10;8.45;;;12.00;99.90;;;;;;5003407;28;20542;-95
2022/10/21 01:00:54;;;;;;;23.10;9.13;;;12.00;99.90;;;;;;4996368;28;20029;-94
2022/10/21 01:03:22;;;;;;;18.15;8.38;;;12.00;99.90;;;;;;5002433;28;20025;-95
2022/10/21 01:05:49;;;;;;;23.85;8.23;;;12.00;99.90;;;;;;5004368;28;20021;-94
2022/10/21 01:08:15;;;;;;;8.88;5.00;;;12.00;99.90;;;;;;5012574;28;20061;-95
2022/10/21 01:10:41;;;;;;;12.65;6.65;;;12.00;99.90;;;;;;5014627;28;20026;-93
2022/10/21 01:13:12;;;;;;;13.60;6.40;;;11.90;99.90;;;;;;5031725;28;20053;-95
2022/10/21 01:15:44;;;;;;;11.15;5.25;;;11.90;99.90;;;;;;5011669;28;20395;-94
2022/10/21 01:18:21;;;;;;;10.80;5.93;;;11.90;99.90;;;;;;5010713;28;20010;-94
2022/10/21 01:21:25;;;;;;;17.25;5.93;;;12.00;99.90;;;;;;5013195;28;20018;-93
2022/10/21 01:24:28;;;;;;;14.63;7.05;;;11.90;99.90;;;;;;5008525;28;20033;-95
2022/10/21 01:27:12;;;;;;;22.20;7.45;;;11.90;99.90;;;;;;5008692;28;20087;-96
2022/10/21 01:29:41;;;;;;;19.55;7.40;;;12.00;99.90;;;;;;5010332;28;20114;-96
2022/10/21 01:32:11;;;;;;;24.23;8.38;;;11.90;99.90;;;;;;5011431;28;20479;-96
2022/10/21 01:34:43;;;;;;;24.17;7.55;;;11.90;99.90;;;;;;5027953;28;20026;-94
2022/10/21 01:37:26;;;;;;;19.92;7.30;;;11.90;99.90;;;;;;5007220;28;20029;-95
2022/10/21 01:40:00;;;;;;;16.67;6.57;;;11.90;99.90;;;;;;5006980;28;20046;-95
2022/10/21 01:42:40;;;;;;;22.17;7.68;;;11.90;99.90;;;;;;5009921;28;20045;-94
2022/10/21 01:45:16;;;;;;;12.90;6.30;;;11.90;99.90;;;;;;5014225;28;20026;-95
2022/10/21 01:47:47;;;;;;;18.05;7.80;;;11.90;99.90;;;;;;5010606;28;20113;-96
2022/10/21 01:50:18;;;;;;;12.63;5.85;;;11.80;99.90;;;;;;5014860;28;20017;-95
2022/10/21 01:52:48;;;;;;;12.63;6.90;;;11.80;99.90;;;;;;5015451;28;20053;-95
2022/10/21 01:55:21;;;;;;;9.88;4.60;;;11.80;99.90;;;;;;5015883;28;20057;-95
2022/10/21 01:57:55;;;;;;;8.85;4.85;;;11.80;99.90;;;;;;5015004;28;20022;-95
2022/10/21 02:00:21;;;;;;;15.38;8.80;;;11.80;99.90;;;;;;5013402;28;20021;-95
2022/10/21 02:02:48;;;;;;;17.33;8.63;;;11.80;99.90;;;;;;5014965;28;20052;-93
2022/10/21 02:05:22;;;;;;;17.92;7.90;;;11.80;99.90;;;;;;5009464;28;20136;-94
2022/10/21 02:07:51;;;;;;;28.27;11.00;;;11.90;99.90;;;;;;5005581;28;20022;-95
2022/10/21 02:10:18;;;;;;;14.65;8.23;;;11.90;99.90;;;;;;5006213;28;20543;-95
2022/10/21 02:12:47;;;;;;;32.08;13.05;;;11.90;99.90;;;;;;5005421;28;20101;-94
2022/10/21 02:15:14;;;;;;;31.05;12.95;;;11.90;99.90;;;;;;5001381;28;20034;-95
2022/10/21 02:17:45;;;;;;;34.67;13.20;;;11.90;99.90;;;;;;5000943;28;20013;-94
2022/10/21 02:20:12;;;;;;;;;;;11.90;99.90;;;;;;5000577;28;20038;-96
2022/10/21 02:22:40;;;;;;;36.30;12.95;;;11.90;99.90;;;;;;5000086;28;19932;-96
2022/10/21 02:25:16;;;;;;;28.55;13.02;;;11.90;99.90;;;;;;5000710;28;20026;-96
2022/10/21 02:27:42;;;;;;;27.02;11.57;;;11.80;99.90;;;;;;4997740;28;20014;-94
2022/10/21 02:30:11;;;;;;;32.13;12.75;;;11.80;99.90;;;;;;5019318;28;20022;-92
2022/10/21 02:33:03;;;;;;;18.15;8.15;;;11.80;99.90;;;;;;5025486;28;20041;-94
2022/10/21 02:35:59;;;;;;;23.70;10.38;;;11.70;99.90;;;;;;4997816;28;20112;-95
2022/10/21 02:38:48;;;;;;;35.00;13.68;;;11.70;99.90;;;;;;5003892;28;20056;-95
2022/10/21 02:41:19;;;;;;;32.92;12.70;;;11.60;99.90;;;;;;5001856;28;20097;-95
2022/10/21 02:44:01;;;;;;;27.50;10.43;;;11.60;99.90;;;;;;5006176;28;20030;-96
2022/10/21 02:46:36;;;;;;;29.45;12.93;;;11.60;99.90;;;;;;5006282;28;20041;-95
2022/10/21 02:49:01;;;;;;;16.27;7.35;;;11.50;99.90;;;;;;5008091;28;20040;-94
2022/10/21 02:51:27;;;;;;;11.75;5.60;;;11.50;99.90;;;;;;5009471;28;20049;-95
2022/10/21 02:53:53;;;;;;;13.60;6.32;;;11.50;99.90;;;;;;5009265;28;20040;-93
2022/10/21 02:56:18;;;;;;;13.93;6.07;;;11.50;99.90;;;;;;5002891;28;20022;-95
2022/10/21 02:58:44;;;;;;;19.70;8.55;;;11.50;99.90;;;;;;5007174;28;20034;-94
2022/10/21 03:01:11;;;;;;;24.55;9.15;;;11.50;99.90;;;;;;4995544;28;20029;-96
2022/10/21 03:03:37;;;;;;;27.55;11.80;;;11.50;99.90;;;;;;5008683;28;20476;-95
2022/10/21 03:06:02;;;;;;;29.45;12.20;;;11.50;99.90;;;;;;5006643;28;20038;-94
2022/10/21 03:08:28;;;;;;;31.23;13.38;;;11.50;99.90;;;;;;5007451;28;20028;-96
2022/10/21 03:10:54;;;;;;;27.80;12.93;;;11.50;99.90;;;;;;5004011;28;20114;-94
2022/10/21 03:13:21;;;;;;;26.25;11.38;;;11.50;99.90;;;;;;5005554;28;20033;-96
2022/10/21 03:15:51;;;;;;;30.80;12.10;;;11.50;99.90;;;;;;5007830;28;20081;-95
2022/10/21 03:18:17;;;;;;;23.42;12.27;;;11.50;99.90;;;;;;5006155;28;20029;-95
2022/10/21 03:20:43;;;;;;;30.73;13.20;;;11.40;99.90;;;;;;5006037;28;20021;-94
2022/10/21 03:23:08;;;;;;;23.25;9.25;;;11.40;99.90;;;;;;5005638;28;20112;-96
2022/10/21 03:25:34;;;;;;;27.58;10.77;;;11.40;99.90;;;;;;5007314;28;20037;-96
2022/10/21 03:28:00;;;;;;;27.58;11.07;;;11.30;99.90;;;;;;5007539;28;20148;-96
2022/10/21 03:30:26;;;;;;;54.47;11.45;;;11.30;99.90;;;;;;5003023;28;20068;-95
2022/10/21 03:32:51;;;;;;;22.02;9.57;;;11.30;99.90;;;;;;5004451;28;20130;-94
2022/10/21 03:35:20;;;;;;;24.98;11.27;;;11.20;99.90;;;;;;5008423;28;20025;-95
2022/10/21 03:37:45;;;;;;;32.08;12.55;;;11.10;99.90;;;;;;5010179;28;20030;-95
2022/10/21 03:40:11;;;;;;;11.60;6.38;;;11.10;99.90;;;;;;5013130;28;20051;-95
2022/10/21 03:42:37;;;;;;;30.23;11.73;;;11.10;99.90;;;;;;5011693;28;20026;-95
2022/10/21 03:45:03;;;;;;;29.63;11.43;;;11.00;99.90;;;;;;5012366;28;20080;-95
2022/10/21 03:47:28;;;;;;;16.27;7.78;;;11.00;99.90;;;;;;4998418;28;20025;-93
2022/10/21 03:49:54;;;;;;;18.88;9.45;;;11.00;99.90;;;;;;5012514;28;20034;-96
2022/10/21 03:52:21;;;;;;;13.32;6.40;;;11.00;99.90;;;;;;5015636;28;20018;-96
2022/10/21 03:54:47;;;;;;;21.02;8.23;;;10.90;99.90;;;;;;5014972;28;20094;-94
2022/10/21 03:57:12;;;;;;;19.95;8.40;;;10.90;99.90;;;;;;5015733;28;20026;-94
2022/10/21 03:59:38;;;;;;;10.60;5.72;;;10.90;99.90;;;;;;5032126;28;20399;-95
2022/10/21 04:02:04;;;;;;;13.95;6.30;;;10.90;99.90;;;;;;5016751;28;20026;-95
2022/10/21 04:04:32;;;;;;;13.60;7.35;;;10.80;99.90;;;;;;5015984;28;20021;-95
2022/10/21 04:06:58;;;;;;;11.60;6.25;;;10.80;99.90;;;;;;5017368;28;20050;-95
2022/10/21 04:09:23;;;;;;;16.60;7.82;;;10.80;99.90;;;;;;5018654;28;20029;-94
2022/10/21 04:11:49;;;;;;;15.00;7.28;;;10.80;99.90;;;;;;5021670;28;20034;-95
2022/10/21 04:14:15;;;;;;;21.35;9.50;;;10.70;99.90;;;;;;5004408;28;20041;-95
2022/10/21 04:16:41;;;;;;;19.17;9.02;;;10.70;99.90;;;;;;5023612;28;20038;-91
2022/10/21 04:19:06;;;;;;;21.75;9.50;;;10.70;99.90;;;;;;5006758;28;20081;-94
2022/10/21 04:21:32;;;;;;;21.55;9.00;;;10.60;99.90;;;;;;5021266;28;20082;-94
2022/10/21 04:24:00;;;;;;;25.60;10.32;;;10.60;99.90;;;;;;5019899;28;20045;-94
2022/10/21 04:26:26;;;;;;;35.75;12.68;;;10.60;99.90;;;;;;5021518;28;20041;-95
2022/10/21 04:28:53;;;;;;;27.38;11.93;;;10.60;99.90;;;;;;5017861;28;20038;-95
2022/10/21 04:31:19;;;;;;;11.43;5.35;;;10.50;99.90;;;;;;5021680;28;20006;-94
2022/10/21 04:33:44;;;;;;;27.58;11.93;;;10.50;99.90;;;;;;5020381;28;20042;-95
2022/10/21 04:36:10;;;;;;;10.80;5.63;;;10.50;99.90;;;;;;5020331;28;20040;-93
2022/10/21 04:38:40;;;;;;;24.17;10.57;;;10.50;99.90;;;;;;5004675;28;20053;-93
2022/10/21 04:41:06;;;;;;;14.77;6.82;;;10.40;99.90;;;;;;5021153;28;20030;-95
2022/10/21 04:43:33;;;;;;;24.83;11.18;;;10.40;99.90;;;;;;5021376;28;20041;-94
2022/10/21 04:46:00;;;;;;;26.13;10.50;;;10.40;99.90;;;;;;5021566;28;20045;-94
2022/10/21 04:48:26;;;;;;;244.93;15.27;;;10.40;99.90;;;;;;5018174;28;20030;-93
2022/10/21 04:50:52;;;;;;;101.47;11.85;;;10.30;99.90;;;;;;5019648;28;20030;-96
2022/10/21 04:53:21;;;;;;;20.95;7.40;;;10.30;99.90;;;;;;5020769;28;20014;-94
2022/10/21 04:55:51;;;;;;;128.82;11.98;;;10.30;99.90;;;;;;5022179;28;20049;-91
2022/10/21 04:58:18;;;;;;;78.57;10.40;;;10.30;99.90;;;;;;5015927;28;20038;-95
2022/10/21 05:00:44;;;;;;;34.45;9.02;;;10.30;99.90;;;;;;5002327;28;20026;-95
2022/10/21 05:03:09;;;;;;;27.85;8.25;;;10.30;99.90;;;;;;5005886;28;20049;-94
2022/10/21 05:05:35;;;;;;;16.30;8.25;;;10.30;99.90;;;;;;5004711;28;20418;-94
2022/10/21 05:08:01;;;;;;;16.65;7.55;;;10.30;99.90;;;;;;5010046;28;20481;-94
2022/10/21 05:10:29;;;;;;;18.83;8.52;;;10.30;99.90;;;;;;5005331;28;20468;-94
2022/10/21 05:12:56;;;;;;;22.10;8.70;;;10.30;99.90;;;;;;5001366;28;20026;-94
2022/10/21 05:15:22;;;;;;;18.05;6.70;;;10.30;99.90;;;;;;5008704;28;20026;-94
2022/10/21 05:17:47;;;;;;;22.83;7.75;;;10.30;99.90;;;;;;5011920;28;20041;-96
2022/10/21 05:20:13;;;;;;;12.65;5.47;;;10.40;99.90;;;;;;5013206;28;20021;-94
2022/10/21 05:22:39;;;;;;;16.63;6.03;;;10.40;99.90;;;;;;5009529;28;20030;-95
2022/10/21 05:25:05;;;;;;;12.02;5.25;;;10.40;99.90;;;;;;5004188;28;20038;-95
2022/10/21 05:27:30;;;;;;;14.65;4.93;;;10.50;99.90;;;;;;5005090;28;20025;-95
2022/10/21 05:29:57;;;;;;;12.38;5.20;;;10.50;99.90;;;;;;5009626;28;20087;-95
2022/10/21 05:32:23;;;;;;;13.80;4.72;;;10.50;99.90;;;;;;5012425;28;20025;-95
2022/10/21 05:34:48;;;;;;;13.55;5.32;;;10.50;99.90;;;;;;5009585;28;20028;-95
2022/10/21 05:37:14;;;;;;;9.23;4.32;;;10.50;99.90;;;;;;5015015;28;20046;-95
2022/10/21 05:39:40;;;;;;;9.63;4.25;;;10.50;99.90;;;;;;5018796;28;20060;-94
2022/10/21 05:42:06;;;;;;;9.77;5.03;;;10.50;99.90;;;;;;5018153;28;20014;-95
2022/10/21 05:44:32;;;;;;;11.68;5.13;;;10.50;99.90;;;;;;5013086;28;20010;-94
2022/10/21 05:46:58;;;;;;;19.13;6.78;;;10.50;99.90;;;;;;5013928;28;20034;-95
2022/10/21 05:49:25;;;;;;;11.43;5.38;;;10.50;99.90;;;;;;5014185;28;20026;-94
2022/10/21 05:51:51;;;;;;;9.73;4.80;;;10.50;99.90;;;;;;5015760;28;20042;-94
2022/10/21 05:54:17;;;;;;;10.73;4.75;;;10.40;99.90;;;;;;5019686;28;20029;-94
2022/10/21 05:56:46;;;;;;;12.43;4.40;;;10.40;99.90;;;;;;5020506;28;20037;-96
2022/10/21 05:59:12;;;;;;;8.33;4.10;;;10.40;99.90;;;;;;5021286;28;20025;-91
2022/10/21 06:01:38;;;;;;;10.13;4.35;;;10.40;99.90;;;;;;5021575;28;20010;-90
2022/10/21 06:04:04;;;;;;;11.00;5.43;;;10.40;99.90;;;;;;5022430;28;20030;-91
2022/10/21 06:06:30;;;;;;;10.90;5.60;;;10.40;99.90;;;;;;5021698;28;20036;-90
2022/10/21 06:08:56;;;;;;;13.18;5.30;;;10.40;99.90;;;;;;5021342;28;20022;-92
2022/10/21 06:11:21;;;;;;;9.57;4.45;;;10.30;99.90;;;;;;5019402;28;20014;-94
2022/10/21 06:13:47;;;;;;;12.00;4.40;;;10.30;99.90;;;;;;5019530;28;20041;-95
2022/10/21 06:16:14;;;;;;;12.68;5.60;;;10.30;99.90;;;;;;5020288;28;20010;-95
2022/10/21 06:18:41;;;;;;;11.52;5.68;;;10.30;99.90;;;;;;5036997;28;20057;-95
2022/10/21 06:21:07;;;;;;;8.25;4.10;;;10.30;99.90;;;;;;5017856;28;20026;-95
2022/10/21 06:23:34;;;;;;;10.23;4.90;;;10.30;99.90;;;;;;5012004;28;20038;-95
2022/10/21 06:26:06;;;;;;;11.23;5.25;;;10.30;99.90;;;;;;5010533;28;20034;-96
2022/10/21 06:28:34;;;;;;;12.38;4.28;;;10.30;99.90;;;;;;5008398;28;20041;-96
2022/10/21 06:31:00;;;;;;;4.30;2.88;;;10.30;99.90;;;;;;5003873;28;20053;-96
2022/10/21 06:33:25;;;;;;;6.07;3.20;;;10.30;99.90;;;;;;5002929;28;20030;-95
2022/10/21 06:35:51;;;;;;;7.97;4.03;;;10.30;99.90;;;;;;5016312;28;20014;-91
2022/10/21 06:38:21;;;;;;;7.68;4.20;;;10.30;99.90;;;;;;4998754;28;20064;-95
2022/10/21 06:40:47;;;;;;;9.45;5.93;;;10.30;99.90;;;;;;4996291;28;20022;-93
2022/10/21 06:43:13;;;;;;;9.68;4.93;;;10.40;99.90;;;;;;4996802;28;20025;-94
2022/10/21 06:45:39;;;;;;;7.40;4.20;;;10.50;99.90;;;;;;4996929;28;20014;-94
2022/10/21 06:48:05;;;;;;;8.43;4.20;;;10.60;99.90;;;;;;4997534;28;20026;-94
2022/10/21 06:50:31;;;;;;;11.52;5.13;;;10.60;99.90;;;;;;4997130;28;20036;-95
2022/10/21 06:52:57;;;;;;;8.00;5.00;;;10.60;99.90;;;;;;4997106;28;20037;-94
2022/10/21 06:55:23;;;;;;;12.13;5.30;;;10.60;99.90;;;;;;4999126;28;20029;-94
2022/10/21 06:57:49;;;;;;;11.05;5.00;;;10.60;99.90;;;;;;4999271;28;20018;-95
2022/10/21 07:00:15;;;;;;;8.35;4.90;;;10.60;99.90;;;;;;4998423;28;20029;-96
2022/10/21 07:02:41;;;;;;;7.40;3.40;;;10.50;99.90;;;;;;4997243;28;20095;-94
2022/10/21 07:05:08;;;;;;;10.35;6.25;;;10.60;99.90;;;;;;4996868;28;20018;-95
2022/10/21 07:07:33;;;;;;;5.82;2.72;;;10.60;99.90;;;;;;4996638;28;20030;-94
2022/10/21 07:09:59;;;;;;;9.55;5.30;;;10.60;99.90;;;;;;4996777;28;20080;-94
2022/10/21 07:12:26;;;;;;;9.68;4.60;;;10.60;99.90;;;;;;4996827;28;20026;-96
2022/10/21 07:14:55;;;;;;;13.27;6.93;;;10.60;99.90;;;;;;4996814;28;20026;-95
2022/10/21 07:17:21;;;;;;;5.03;3.22;;;10.60;99.90;;;;;;4994170;28;20014;-95
2022/10/21 07:19:46;;;;;;;11.48;5.68;;;10.60;99.90;;;;;;4997777;28;20399;-95
2022/10/21 07:22:16;;;;;;;14.10;6.65;;;10.60;99.90;;;;;;4999254;28;20022;-95
2022/10/21 07:24:42;;;;;;;12.50;5.97;;;10.70;99.90;;;;;;4996479;28;20555;-94
2022/10/21 07:27:08;;;;;;;17.63;8.27;;;10.70;99.90;;;;;;4998648;28;20129;-95
2022/10/21 07:29:33;;;;;;;17.38;7.90;;;10.70;99.90;;;;;;4998366;28;20033;-94
2022/10/21 07:31:59;;;;;;;16.23;7.38;;;10.70;99.90;;;;;;4996256;28;20018;-93
2022/10/21 07:34:27;;;;;;;16.05;8.38;;;10.70;99.90;;;;;;4998669;28;20030;-94
2022/10/21 07:36:53;;;;;;;13.10;7.13;;;10.70;99.90;;;;;;4998896;28;20467;-95
2022/10/21 07:39:25;;;;;;;15.73;6.82;;;10.70;99.90;;;;;;4997053;28;20053;-95
2022/10/21 07:41:55;;;;;;;41.42;10.77;;;10.70;99.90;;;;;;4997945;28;20167;-94
2022/10/21 07:44:24;;;;;;;17.90;8.55;;;10.70;99.90;;;;;;5000026;28;20022;-94
2022/10/21 07:46:53;;;;;;;18.13;8.95;;;10.70;99.90;;;;;;5009796;28;20029;-93
2022/10/21 07:49:20;;;;;;;10.73;5.57;;;10.70;99.90;;;;;;5018223;28;20010;-94
2022/10/21 07:51:48;;;;;;;27.38;11.73;;;10.70;99.90;;;;;;4999484;28;20112;-94
2022/10/21 07:54:16;;;;;;;24.20;11.80;;;10.70;99.90;;;;;;4997186;28;20046;-94
2022/10/21 07:56:45;;;;;;;20.70;8.82;;;10.70;99.90;;;;;;4996623;28;20042;-94
2022/10/21 07:59:12;;;;;;;20.08;8.25;;;10.70;99.90;;;;;;4996494;28;20033;-94
2022/10/21 08:01:39;;;;;;;13.38;7.05;;;10.80;99.90;;;;;;4997515;28;20037;-94
2022/10/21 08:04:05;;;;;;;13.50;7.00;;;10.80;99.90;;;;;;4997686;28;20065;-95
2022/10/21 08:06:31;;;;;;;15.32;7.88;;;10.80;99.90;;;;;;4997623;28;20014;-93
2022/10/21 08:08:57;;;;;;;28.00;10.50;;;10.80;99.90;;;;;;4996642;28;20034;-94
2022/10/21 08:11:24;;;;;;;14.85;7.72;;;10.80;99.90;;;;;;4994556;28;20056;-93
2022/10/21 08:13:50;;;;;;;28.02;12.80;;;10.80;99.90;;;;;;4991709;28;20038;-96
2022/10/21 08:16:16;;;;;;;24.08;10.13;;;10.90;99.90;;;;;;4998403;28;20021;-95
2022/10/21 08:18:41;;;;;;;28.15;12.48;;;10.90;99.90;;;;;;4989069;28;20109;-94
2022/10/21 08:21:07;;;;;;;37.30;14.68;;;11.00;99.90;;;;;;4994031;28;20022;-93
2022/10/21 08:23:33;;;;;;;23.63;11.38;;;11.00;99.90;;;;;;4998116;28;20029;-93
2022/10/21 08:26:09;;;;;;;36.65;14.70;;;11.10;99.90;;;;;;4992721;28;20442;-95
2022/10/21 08:28:34;;;;;;;33.72;14.27;;;11.10;99.90;;;;;;5014676;28;20026;-95
2022/10/21 08:31:04;;;;;;;38.20;16.05;;;11.10;99.90;;;;;;4988445;28;20665;-95
2022/10/21 08:33:31;;;;;;;42.17;15.77;;;11.20;99.90;;;;;;4993065;28;20034;-95
2022/10/21 08:35:56;;;;;;;34.38;13.73;;;11.20;99.90;;;;;;4989275;28;20132;-95
2022/10/21 08:38:22;;;;;;;46.47;17.02;;;11.30;99.90;;;;;;4991076;28;20073;-95
2022/10/21 08:40:51;;;;;;;39.67;16.08;;;11.30;99.90;;;;;;4990781;28;20111;-95
2022/10/21 08:43:22;;;;;;;44.22;17.27;;;11.30;99.90;;;;;;4990134;28;20037;-94
2022/10/21 08:45:58;;;;;;;37.85;15.05;;;11.40;99.90;;;;;;4995958;28;20050;-94
2022/10/21 08:48:36;;;;;;;45.53;18.30;;;11.40;99.90;;;;;;5011789;28;20421;-96
2022/10/21 08:51:05;;;;;;;44.20;16.85;;;11.50;99.90;;;;;;5000879;28;20030;-95
2022/10/21 08:53:46;;;;;;;48.17;18.90;;;11.50;99.90;;;;;;5001598;28;20034;-94
2022/10/21 08:56:19;;;;;;;34.60;15.80;;;11.60;99.90;;;;;;5003250;28;20301;-95
2022/10/21 08:58:50;;;;;;;43.25;18.15;;;11.70;99.90;;;;;;5028694;28;20034;-96
2022/10/21 09:01:34;;;;;;;44.45;17.73;;;11.70;99.90;;;;;;5017749;28;20086;-93
2022/10/21 09:04:24;;;;;;;31.67;15.07;;;11.80;99.90;;;;;;5008382;28;20037;-95
2022/10/21 09:07:32;;;;;;;47.50;18.33;;;11.90;99.90;;;;;;5028048;28;20007;-94
2022/10/21 09:10:06;;;;;;;41.35;16.88;;;11.90;99.90;;;;;;5012460;28;20011;-94
2022/10/21 09:12:55;;;;;;;33.40;14.77;;;12.00;99.90;;;;;;5013841;28;20025;-93
2022/10/21 09:15:39;;;;;;;40.53;15.63;;;12.10;99.90;;;;;;5027856;28;20086;-93
2022/10/21 09:18:25;;;;;;;39.08;16.63;;;12.20;99.90;;;;;;5016519;28;20018;-96
2022/10/21 09:21:21;;;;;;;42.95;15.85;;;12.40;99.90;;;;;;5020650;28;20022;-95
2022/10/21 09:23:56;;;;;;;35.30;15.70;;;12.50;99.90;;;;;;5009703;28;20111;-93
2022/10/21 09:26:34;;;;;;;34.70;13.77;;;12.50;99.90;;;;;;5020460;28;20010;-94
2022/10/21 09:29:34;;;;;;;30.83;14.38;;;12.60;99.90;;;;;;5023032;28;20013;-95
2022/10/21 09:32:13;;;;;;;31.10;14.25;;;12.60;99.90;;;;;;4985827;28;20035;-93
2022/10/21 09:34:44;;;;;;;35.92;15.05;;;12.70;99.90;;;;;;5011841;28;20034;-93
2022/10/21 09:37:39;;;;;;;32.83;16.80;;;12.90;99.90;;;;;;5013197;28;20037;-94
2022/10/21 09:40:32;;;;;;;28.40;13.35;;;13.20;99.90;;;;;;5012416;28;20078;-95
2022/10/21 09:43:00;;;;;;;24.98;12.40;;;13.50;99.90;;;;;;5007602;28;20097;-95
2022/10/21 09:45:41;;;;;;;29.33;13.48;;;13.60;99.90;;;;;;5018352;28;20046;-93
2022/10/21 09:48:10;;;;;;;;;;;13.60;99.90;;;;;;5020576;28;20017;-95
2022/10/21 09:50:43;;;;;;;26.00;11.35;;;13.70;99.90;;;;;;5030478;28;19932;-94
2022/10/21 09:53:44;;;;;;;26.23;11.40;;;13.70;99.90;;;;;;5002212;28;20019;-93
2022/10/21 09:56:22;;;;;;;29.88;12.73;;;13.70;99.90;;;;;;5019582;28;20064;-95
2022/10/21 09:59:02;;;;;;;27.90;12.90;;;13.70;99.90;;;;;;5008919;28;20109;-93
2022/10/21 10:01:29;;;;;;;26.50;12.68;;;13.70;99.90;;;;;;5005140;28;20026;-93
2022/10/21 10:06:35;;;;;;;25.08;11.07;;;13.70;99.90;;;;;;5466167;23;20038;-94
2022/10/21 10:09:05;;;;;;;;;;;13.60;99.90;;;;;;4991456;28;20029;-95
2022/10/21 10:11:30;;;;;;;22.10;11.18;;;13.60;99.90;;;;;;4986624;28;19925;-92
2022/10/21 10:13:56;;;;;;;27.33;11.88;;;13.60;99.90;;;;;;4992221;28;20090;-95
2022/10/21 10:16:27;;;;;;;26.73;11.88;;;13.60;99.90;;;;;;4999058;28;20042;-93
2022/10/21 10:19:17;;;;;;;30.98;12.55;;;13.60;99.90;;;;;;4971103;28;20056;-94
2022/10/21 10:21:50;;;;;;;24.75;12.80;;;13.60;99.90;;;;;;4989101;28;20022;-95
2022/10/21 10:24:22;;;;;;;27.15;12.75;;;13.60;99.90;;;;;;4985502;28;20034;-95
2022/10/21 10:26:53;;;;;;;29.92;13.10;;;13.60;99.90;;;;;;4995941;28;20046;-96
2022/10/21 10:29:27;;;;;;;37.05;15.13;;;13.60;99.90;;;;;;4997420;28;20027;-95
2022/10/21 10:32:00;;;;;;;31.75;15.70;;;13.60;99.90;;;;;;5018262;28;20023;-94
2022/10/21 10:34:38;;;;;;;37.95;17.23;;;13.50;99.90;;;;;;4991522;28;20070;-95
2022/10/21 10:37:06;;;;;;;38.30;17.13;;;13.50;99.90;;;;;;4983777;28;20047;-93
2022/10/21 10:39:35;;;;;;;45.03;20.00;;;13.50;99.90;;;;;;4996187;28;20011;-92
2022/10/21 10:42:03;;;;;;;41.15;19.50;;;13.40;99.90;;;;;;4985673;28;20026;-94
2022/10/21 10:44:34;;;;;;;48.92;20.92;;;13.40;99.90;;;;;;4999891;28;20035;-95
2022/10/21 10:47:01;;;;;;;48.33;20.20;;;13.40;99.90;;;;;;5000126;28;20041;-95
2022/10/21 10:49:38;;;;;;;44.65;20.67;;;13.40;99.90;;;;;;4993489;28;20062;-92
2022/10/21 10:52:21;;;;;;;48.42;18.45;;;13.30;99.90;;;;;;4990923;28;20082;-93
2022/10/21 10:55:07;;;;;;;39.75;19.02;;;13.30;99.90;;;;;;4996457;28;20034;-95
2022/10/21 10:57:34;;;;;;;43.08;19.95;;;13.30;99.90;;;;;;4997854;28;20031;-95
2022/10/21 11:00:20;;;;;;;42.30;18.33;;;13.30;99.90;;;;;;4997393;28;20040;-90
2022/10/21 11:02:56;;;;;;;40.05;18.50;;;13.20;99.90;;;;;;4990569;28;20019;-92
2022/10/21 11:05:38;;;;;;;39.67;19.13;;;13.20;99.90;;;;;;4995092;28;20026;-92
2022/10/21 11:08:15;;;;;;;40.53;18.58;;;13.20;99.90;;;;;;4996745;28;20035;-94
2022/10/21 11:10:50;;;;;;;34.63;17.45;;;13.20;99.90;;;;;;4992242;28;20035;-92
2022/10/21 11:13:18;;;;;;;49.70;19.38;;;13.20;99.90;;;;;;4984584;28;20038;-96
2022/10/21 11:15:49;;;;;;;41.20;18.33;;;13.30;99.90;;;;;;4991149;28;20015;-94
2022/10/21 11:18:21;;;;;;;44.08;17.65;;;13.20;99.90;;;;;;4991704;28;20026;-96
2022/10/21 11:20:58;;;;;;;47.70;17.40;;;13.20;99.90;;;;;;4993107;28;20137;-96
2022/10/21 11:24:15;;;;;;;40.65;17.77;;;13.30;99.90;;;;;;4987351;28;20054;-96
2022/10/21 11:27:15;;;;;;;35.15;17.45;;;13.30;99.90;;;;;;4992392;28;20030;-94
2022/10/21 11:29:43;;;;;;;44.85;17.88;;;13.30;99.90;;;;;;4985956;28;20038;-95
2022/10/21 11:32:39;;;;;;;36.20;15.60;;;13.30;99.90;;;;;;4995924;28;20472;-96
2022/10/21 11:35:22;;;;;;;43.28;17.48;;;13.30;99.90;;;;;;4977185;28;20129;-95
2022/10/21 11:38:07;;;;;;;38.25;16.02;;;13.40;99.90;;;;;;4974942;28;20027;-96
2022/10/21 11:40:38;;;;;;;43.97;17.67;;;13.40;99.90;;;;;;4989384;28;20025;-95
2022/10/21 11:43:30;;;;;;;38.13;17.13;;;13.50;99.90;;;;;;4967869;28;20027;-95
2022/10/21 11:46:06;;;;;;;30.63;15.35;;;13.50;99.90;;;;;;4931073;28;20042;-93
2022/10/21 11:49:02;;;;;;;37.60;16.33;;;13.50;99.90;;;;;;4989234;28;20054;-96
2022/10/21 11:51:39;;;;;;;44.75;17.80;;;13.50;99.90;;;;;;4993684;28;20026;-95
2022/10/21 11:54:33;;;;;;;38.00;15.60;;;13.60;99.90;;;;;;4980519;28;20046;-95
2022/10/21 11:57:38;;;;;;;34.22;15.88;;;13.60;99.90;;;;;;4978984;28;20551;-96
2022/10/21 12:00:11;;;;;;;29.67;12.50;;;13.70;99.90;;;;;;4911665;29;20017;-95
2022/10/21 12:02:40;;;;;;;33.13;13.95;;;13.70;99.90;;;;;;4904915;29;20029;-96
2022/10/21 12:05:31;;;;;;;24.05;10.85;;;13.70;99.90;;;;;;4917778;29;20028;-96
2022/10/21 12:08:20;;;;;;;22.05;10.70;;;13.80;99.90;;;;;;4893829;29;20045;-96
2022/10/21 12:10:55;;;;;;;26.60;10.82;;;13.80;99.90;;;;;;4914020;29;20037;-95
2022/10/21 12:13:32;;;;;;;22.00;11.57;;;13.90;99.90;;;;;;4898381;29;20032;-95
2022/10/21 12:16:01;;;;;;;21.85;9.73;;;13.90;99.90;;;;;;4912624;29;20024;-96
2022/10/21 12:18:29;;;;;;;20.20;9.07;;;14.00;99.90;;;;;;4893071;29;20035;-94
2022/10/21 12:20:57;;;;;;;18.83;8.55;;;14.10;99.90;;;;;;4874951;29;20073;-95
2022/10/21 12:23:27;;;;;;;14.80;7.55;;;14.20;99.90;;;;;;4892329;29;20036;-94
2022/10/21 12:26:20;;;;;;;16.92;6.90;;;14.20;99.90;;;;;;4890205;29;20487;-95
2022/10/21 12:29:05;;;;;;;20.58;6.75;;;14.30;99.90;;;;;;4905659;29;20032;-94
2022/10/21 12:31:52;;;;;;;18.23;6.35;;;14.30;99.90;;;;;;4896662;29;20021;-95
2022/10/21 12:34:18;;;;;;;18.13;6.32;;;14.40;99.90;;;;;;4954063;28;20043;-95
2022/10/21 12:36:49;;;;;;;15.20;7.25;;;14.40;99.90;;;;;;4996819;28;20034;-94
2022/10/21 12:39:41;;;;;;;13.18;5.88;;;14.40;99.90;;;;;;4995308;28;20026;-95
2022/10/21 12:42:17;;;;;;;18.85;6.00;;;14.50;99.90;;;;;;4995006;28;20022;-96
2022/10/21 12:44:52;;;;;;;19.52;6.82;;;14.50;99.90;;;;;;4997058;28;20018;-95
2022/10/21 12:47:26;;;;;;;16.50;5.85;;;14.50;99.90;;;;;;4997092;28;20010;-91
2022/10/21 12:50:20;;;;;;;21.52;5.65;;;14.60;99.90;;;;;;5001713;28;20082;-96
2022/10/21 12:53:20;;;;;;;16.23;4.82;;;14.60;99.90;;;;;;4995918;28;20057;-96
2022/10/21 12:55:57;;;;;;;13.18;6.25;;;14.60;99.90;;;;;;4999008;28;20171;-95
2022/10/21 12:58:52;;;;;;;16.73;4.63;;;14.60;99.90;;;;;;4999956;28;20019;-95